Time;durP1;ratioP1;P1;durP2;ratioP2;P2;SDS_P1;SDS_P2;PMS_P1;PMS_P2;Temp;Humidity;BMP_temperature;BMP_pressure;BME280_temperature;BME280_humidity;BME280_pressure;Samples;Min_cycle;Max_cycle;Signal;HPM_P1;HPM_P2
2022/06/21 00:02:15;;;;;;;8.02;1.77;;;11.20;99.90;;;;;;4924459;29;20085;-73
2022/06/21 00:04:41;;;;;;;7.25;1.92;;;11.10;99.90;;;;;;4925655;29;20054;-73
2022/06/21 00:07:20;;;;;;;11.27;2.10;;;11.20;99.90;;;;;;4923786;29;20075;-73
2022/06/21 00:09:46;;;;;;;8.38;2.10;;;11.10;99.90;;;;;;4945884;28;20051;-73
2022/06/21 00:12:12;;;;;;;8.43;1.92;;;11.10;99.90;;;;;;4945013;28;20070;-73
2022/06/21 00:14:39;;;;;;;10.18;2.00;;;11.10;99.90;;;;;;4929391;29;20508;-73
2022/06/21 00:17:05;;;;;;;8.38;2.00;;;11.10;99.90;;;;;;4922520;29;20494;-73
2022/06/21 00:19:32;;;;;;;8.05;2.25;;;11.00;99.90;;;;;;4946123;28;20573;-73
2022/06/21 00:21:58;;;;;;;7.25;2.03;;;10.90;99.90;;;;;;4927805;29;20540;-73
2022/06/21 00:24:25;;;;;;;11.30;2.00;;;10.90;99.90;;;;;;4924851;29;20173;-73
2022/06/21 00:26:50;;;;;;;7.97;1.88;;;10.80;99.90;;;;;;4937444;29;20067;-73
2022/06/21 00:29:16;;;;;;;9.65;2.10;;;10.80;99.90;;;;;;4932295;29;20050;-73
2022/06/21 00:31:46;;;;;;;7.43;2.28;;;10.70;99.90;;;;;;4926427;29;20134;-73
2022/06/21 00:34:21;;;;;;;7.35;1.90;;;10.70;99.90;;;;;;4948770;29;20179;-73
2022/06/21 00:36:48;;;;;;;11.80;2.40;;;10.70;99.90;;;;;;4932378;29;20050;-73
2022/06/21 00:39:17;;;;;;;9.98;1.90;;;10.60;99.90;;;;;;4924404;29;20868;-73
2022/06/21 00:41:56;;;;;;;9.77;2.38;;;10.60;99.90;;;;;;4926356;29;20050;-73
2022/06/21 00:44:33;;;;;;;9.98;2.25;;;10.60;99.90;;;;;;4940495;29;20043;-73
2022/06/21 00:47:24;;;;;;;10.10;2.28;;;10.60;99.90;;;;;;4945129;29;20130;-74
2022/06/21 00:50:00;;;;;;;9.15;1.80;;;10.60;99.90;;;;;;4915885;29;20122;-74
2022/06/21 00:52:40;;;;;;;7.57;2.10;;;10.50;99.90;;;;;;4941887;29;20059;-73
2022/06/21 00:55:14;;;;;;;10.30;2.15;;;10.50;99.90;;;;;;4941847;29;20051;-73
2022/06/21 00:57:49;;;;;;;6.55;1.98;;;10.50;99.90;;;;;;4931904;29;20735;-73
2022/06/21 01:00:39;;;;;;;6.55;2.00;;;10.50;99.90;;;;;;4930251;28;20175;-73
2022/06/21 01:03:17;;;;;;;12.77;2.10;;;10.40;99.90;;;;;;4941230;29;20530;-73
2022/06/21 01:05:45;;;;;;;8.20;1.98;;;10.40;99.90;;;;;;4942602;28;20035;-73
2022/06/21 01:08:17;;;;;;;7.22;1.73;;;10.30;99.90;;;;;;4944592;29;20404;-73
2022/06/21 01:10:46;;;;;;;10.23;2.22;;;10.30;99.90;;;;;;4949043;28;20082;-73
2022/06/21 01:13:17;;;;;;;8.57;1.98;;;10.20;99.90;;;;;;4931425;29;20122;-73
2022/06/21 01:15:45;;;;;;;7.90;2.08;;;10.20;99.90;;;;;;4929040;29;20034;-73
2022/06/21 01:18:14;;;;;;;9.35;2.45;;;10.20;99.90;;;;;;4929893;29;20092;-73
2022/06/21 01:20:47;;;;;;;9.02;1.98;;;10.10;99.90;;;;;;4931413;29;20046;-73
2022/06/21 01:23:37;;;;;;;8.35;2.40;;;10.10;99.90;;;;;;4923796;29;20067;-74
2022/06/21 01:26:38;;;;;;;10.55;2.40;;;10.00;99.90;;;;;;4914728;29;20393;-73
2022/06/21 01:29:07;;;;;;;9.63;2.20;;;10.00;99.90;;;;;;4924904;29;20066;-74
2022/06/21 01:31:33;;;;;;;5.93;2.08;;;10.00;99.90;;;;;;4919140;29;20426;-73
2022/06/21 01:33:59;;;;;;;7.10;2.13;;;10.00;99.90;;;;;;4919908;29;20060;-73
2022/06/21 01:36:29;;;;;;;7.43;2.47;;;10.00;99.90;;;;;;4934057;29;20051;-73
2022/06/21 01:39:07;;;;;;;9.13;2.50;;;9.80;99.90;;;;;;4929536;29;20407;-73
2022/06/21 01:41:43;;;;;;;5.43;1.90;;;9.90;99.90;;;;;;4926049;29;20706;-73
2022/06/21 01:44:14;;;;;;;8.15;2.08;;;9.80;99.90;;;;;;4943742;29;20059;-73
2022/06/21 01:46:40;;;;;;;6.60;2.25;;;9.80;99.90;;;;;;4928781;29;20548;-73
2022/06/21 01:49:10;;;;;;;8.25;2.05;;;9.80;99.90;;;;;;4922804;29;20048;-73
2022/06/21 01:51:51;;;;;;;9.40;2.33;;;9.80;99.90;;;;;;4902275;29;20048;-73
2022/06/21 01:54:21;;;;;;;4.55;2.05;;;9.70;99.90;;;;;;4907862;29;20056;-73
2022/06/21 01:56:48;;;;;;;7.65;3.00;;;9.70;99.90;;;;;;4921678;29;20086;-74
2022/06/21 01:59:23;;;;;;;8.40;2.25;;;9.70;99.90;;;;;;4928696;29;20039;-73
2022/06/21 02:01:58;;;;;;;7.03;1.85;;;9.60;99.90;;;;;;4931428;29;20512;-74
2022/06/21 02:04:27;;;;;;;5.47;2.00;;;9.60;99.90;;;;;;4918549;29;20423;-73
2022/06/21 02:06:56;;;;;;;7.55;2.33;;;9.60;99.90;;;;;;4927436;29;20043;-73
2022/06/21 02:09:37;;;;;;;11.00;2.25;;;9.50;99.90;;;;;;4921968;29;20040;-74
2022/06/21 02:12:07;;;;;;;6.97;2.22;;;9.50;99.90;;;;;;4928145;29;20055;-74
2022/06/21 02:14:38;;;;;;;6.50;2.20;;;9.50;99.90;;;;;;4906426;29;20057;-73
2022/06/21 02:17:21;;;;;;;;;;;9.50;99.90;;;;;;4912785;29;20051;-73
2022/06/21 02:20:27;;;;;;;6.63;2.20;;;9.40;99.90;;;;;;4916880;29;19923;-74
2022/06/21 02:22:53;;;;;;;7.78;2.40;;;9.50;99.90;;;;;;4916679;29;20075;-73
2022/06/21 02:25:22;;;;;;;7.72;2.40;;;9.50;99.90;;;;;;4922727;29;20075;-73
2022/06/21 02:27:50;;;;;;;6.95;2.58;;;9.60;99.90;;;;;;4928707;29;20051;-74
2022/06/21 02:30:22;;;;;;;7.28;2.55;;;9.50;99.90;;;;;;4907767;29;20058;-73
2022/06/21 02:32:50;;;;;;;7.95;2.78;;;9.60;99.90;;;;;;4928969;29;20559;-74
2022/06/21 02:35:37;;;;;;;7.22;2.53;;;9.70;99.90;;;;;;4925186;29;20040;-74
2022/06/21 02:38:09;;;;;;;9.18;2.60;;;9.60;99.90;;;;;;4921820;29;20037;-73
2022/06/21 02:40:48;;;;;;;9.25;2.58;;;9.60;99.90;;;;;;4914140;29;20179;-73
2022/06/21 02:43:22;;;;;;;8.40;2.60;;;9.70;99.90;;;;;;4922002;29;20051;-73
2022/06/21 02:45:53;;;;;;;7.72;2.67;;;9.80;99.90;;;;;;4926030;29;20119;-73
2022/06/21 02:48:24;;;;;;;8.23;2.88;;;9.70;99.90;;;;;;4943126;29;20047;-73
2022/06/21 02:50:52;;;;;;;;;;;9.70;99.90;;;;;;4928415;29;20055;-73
2022/06/21 02:53:32;;;;;;;6.88;2.85;;;9.80;99.90;;;;;;4941997;29;19930;-73
2022/06/21 02:56:09;;;;;;;7.63;2.53;;;9.90;99.90;;;;;;4922116;29;20073;-73
2022/06/21 02:58:46;;;;;;;8.52;2.92;;;10.00;99.90;;;;;;4941884;29;20078;-73
2022/06/21 03:01:30;;;;;;;13.20;3.40;;;10.00;99.90;;;;;;4933168;29;20039;-73
2022/06/21 03:03:57;;;;;;;9.30;3.60;;;10.00;99.90;;;;;;4920624;29;20136;-73
2022/06/21 03:06:24;;;;;;;9.43;2.90;;;10.10;99.90;;;;;;4911365;29;20047;-73
2022/06/21 03:09:00;;;;;;;6.95;2.78;;;10.10;99.90;;;;;;4913092;29;20047;-73
2022/06/21 03:11:33;;;;;;;9.98;2.85;;;10.10;99.90;;;;;;4931075;29;20052;-73
2022/06/21 03:14:06;;;;;;;11.55;3.10;;;10.20;99.90;;;;;;4923836;29;20439;-74
2022/06/21 03:16:32;;;;;;;7.22;2.70;;;10.20;99.90;;;;;;4943833;28;20060;-73
2022/06/21 03:19:02;;;;;;;9.18;2.85;;;10.20;99.90;;;;;;4924362;29;20408;-73
2022/06/21 03:21:32;;;;;;;8.07;2.80;;;10.20;99.90;;;;;;4926170;29;20055;-73
2022/06/21 03:23:59;;;;;;;9.98;3.53;;;10.20;99.90;;;;;;4935267;29;20082;-73
2022/06/21 03:26:28;;;;;;;9.45;4.00;;;10.30;99.90;;;;;;4922518;29;20479;-73
2022/06/21 03:28:55;;;;;;;9.23;3.20;;;10.30;99.90;;;;;;4935677;29;20517;-73
2022/06/21 03:31:20;;;;;;;8.82;2.78;;;10.40;99.90;;;;;;4917091;29;20105;-73
2022/06/21 03:33:49;;;;;;;8.88;3.45;;;10.40;99.90;;;;;;4920219;29;20462;-73
2022/06/21 03:36:21;;;;;;;9.93;3.40;;;10.40;99.90;;;;;;4920539;29;20048;-73
2022/06/21 03:39:12;;;;;;;10.52;3.40;;;10.50;99.90;;;;;;4928427;29;20044;-73
2022/06/21 03:41:43;;;;;;;9.38;3.35;;;10.50;99.90;;;;;;4917661;29;20075;-74
2022/06/21 03:44:13;;;;;;;;;;;10.50;99.90;;;;;;4909952;29;20087;-74
2022/06/21 03:46:49;;;;;;;7.07;3.00;;;10.60;99.90;;;;;;4944098;29;19982;-74
2022/06/21 03:49:38;;;;;;;11.48;3.28;;;10.50;99.90;;;;;;4910280;29;20055;-74
2022/06/21 03:52:08;;;;;;;13.93;3.78;;;10.60;99.90;;;;;;4946822;28;20046;-75
2022/06/21 03:54:49;;;;;;;9.00;3.40;;;10.60;99.90;;;;;;4927093;29;20048;-74
2022/06/21 03:57:23;;;;;;;7.13;3.10;;;10.60;99.90;;;;;;4924989;29;20055;-74
2022/06/21 03:59:56;;;;;;;6.85;2.80;;;10.60;99.90;;;;;;4912739;29;20048;-74
2022/06/21 04:02:33;;;;;;;8.27;3.33;;;10.70;99.90;;;;;;4924795;29;20048;-74
2022/06/21 04:05:06;;;;;;;12.65;4.72;;;10.60;99.90;;;;;;4910941;29;20043;-74
2022/06/21 04:07:41;;;;;;;9.45;4.57;;;10.60;99.90;;;;;;4908044;29;20070;-74
2022/06/21 04:10:30;;;;;;;9.95;3.20;;;10.60;99.90;;;;;;4945500;28;20083;-75
2022/06/21 04:12:59;;;;;;;9.02;3.25;;;10.70;99.90;;;;;;4928794;29;20130;-75
2022/06/21 04:15:56;;;;;;;7.22;3.10;;;10.60;99.90;;;;;;4929136;29;20043;-74
2022/06/21 04:18:46;;;;;;;9.02;3.50;;;10.70;99.90;;;;;;4903947;29;20060;-74
2022/06/21 04:21:49;;;;;;;8.10;3.40;;;10.70;99.90;;;;;;4925305;29;20602;-73
2022/06/21 04:24:29;;;;;;;9.18;4.00;;;10.70;99.90;;;;;;4924241;29;20546;-73
2022/06/21 04:27:06;;;;;;;10.55;3.40;;;10.70;99.90;;;;;;4924934;29;20083;-73
2022/06/21 04:29:42;;;;;;;9.70;4.28;;;10.80;99.90;;;;;;4927274;29;20098;-74
2022/06/21 04:32:20;;;;;;;8.57;3.88;;;10.80;99.90;;;;;;4932100;29;20044;-73
2022/06/21 04:35:12;;;;;;;14.70;4.57;;;10.90;99.90;;;;;;4915176;29;20079;-73
2022/06/21 04:37:43;;;;;;;;;;;12.40;99.90;;;;;;4928636;29;20047;-73
2022/06/21 04:40:35;;;;;;;7.55;3.10;;;14.10;99.90;;;;;;4924657;29;20517;-73
2022/06/21 04:43:19;;;;;;;8.98;3.17;;;16.00;99.90;;;;;;4916551;29;20058;-73
2022/06/21 04:45:55;;;;;;;8.38;2.65;;;17.40;99.90;;;;;;4943498;29;20054;-74
2022/06/21 04:48:36;;;;;;;8.38;2.72;;;18.60;99.90;;;;;;4931928;28;20043;-73
2022/06/21 04:51:10;;;;;;;7.65;3.33;;;19.70;99.90;;;;;;4949339;28;20050;-74
2022/06/21 04:54:01;;;;;;;6.80;2.78;;;20.70;99.90;;;;;;4945199;28;20039;-74
2022/06/21 04:56:35;;;;;;;5.87;2.17;;;21.60;99.90;;;;;;4926511;28;20047;-74
2022/06/21 04:59:07;;;;;;;6.40;2.28;;;22.30;99.90;;;;;;4940925;29;20051;-73
2022/06/21 05:01:33;;;;;;;9.48;2.50;;;22.90;99.90;;;;;;4936921;29;20054;-74
2022/06/21 05:04:07;;;;;;;9.25;2.28;;;23.40;99.90;;;;;;4936923;29;20493;-74
2022/06/21 05:06:34;;;;;;;7.50;2.25;;;23.90;99.90;;;;;;4947910;29;20067;-74
2022/06/21 05:09:00;;;;;;;5.30;2.10;;;24.50;99.90;;;;;;4926709;29;20043;-74
2022/06/21 05:11:26;;;;;;;6.32;2.33;;;25.00;99.90;;;;;;4924459;29;20110;-74
2022/06/21 05:13:54;;;;;;;9.27;2.17;;;25.20;99.90;;;;;;4907125;29;20039;-74
2022/06/21 05:16:20;;;;;;;7.28;2.03;;;25.40;99.90;;;;;;4929590;28;20051;-74
2022/06/21 05:18:55;;;;;;;6.60;2.30;;;25.70;99.90;;;;;;4921972;28;20544;-74
2022/06/21 05:21:43;;;;;;;6.93;2.50;;;26.10;99.90;;;;;;4941427;29;20509;-74
2022/06/21 05:24:10;;;;;;;6.82;2.20;;;26.50;99.90;;;;;;4939129;29;20078;-73
2022/06/21 05:27:07;;;;;;;8.20;2.30;;;26.90;99.90;;;;;;4943705;28;20059;-74
2022/06/21 05:29:55;;;;;;;6.93;1.83;;;27.20;98.30;;;;;;4905218;29;20063;-73
2022/06/21 05:32:26;;;;;;;6.55;2.00;;;27.40;97.10;;;;;;4919906;29;20075;-74
2022/06/21 05:35:01;;;;;;;7.18;2.00;;;26.30;97.00;;;;;;4902586;29;20784;-73
2022/06/21 05:37:32;;;;;;;6.28;1.80;;;24.60;97.70;;;;;;4903600;29;20055;-74
2022/06/21 05:40:03;;;;;;;7.75;2.58;;;23.10;99.30;;;;;;4905631;29;20471;-73
2022/06/21 05:42:29;;;;;;;5.68;1.92;;;21.80;99.90;;;;;;4907765;29;20044;-73
2022/06/21 05:45:06;;;;;;;7.10;2.28;;;20.80;99.90;;;;;;4924064;29;20056;-73
2022/06/21 05:47:50;;;;;;;7.35;2.20;;;19.90;99.90;;;;;;4912904;29;20040;-73
2022/06/21 05:50:28;;;;;;;6.55;1.95;;;19.00;99.90;;;;;;4924363;29;20032;-73
2022/06/21 05:52:58;;;;;;;8.93;2.30;;;18.40;99.90;;;;;;4924629;29;20059;-74
2022/06/21 05:55:35;;;;;;;7.60;2.58;;;17.90;99.90;;;;;;4907416;29;20058;-73
2022/06/21 05:58:14;;;;;;;5.43;2.00;;;17.80;99.90;;;;;;4916875;29;20530;-72
2022/06/21 06:00:55;;;;;;;7.35;1.92;;;19.00;99.90;;;;;;4903524;29;20127;-73
2022/06/21 06:03:35;;;;;;;7.68;2.78;;;19.90;99.90;;;;;;4898265;29;20051;-73
2022/06/21 06:06:05;;;;;;;9.93;2.17;;;19.50;99.90;;;;;;4904729;29;20036;-72
2022/06/21 06:08:38;;;;;;;6.75;2.00;;;19.00;99.90;;;;;;4903012;29;20386;-72
2022/06/21 06:11:13;;;;;;;8.73;2.40;;;18.70;99.90;;;;;;4885725;29;20494;-72
2022/06/21 06:13:41;;;;;;;8.15;2.40;;;18.30;99.90;;;;;;4893152;29;20082;-73
2022/06/21 06:16:35;;;;;;;10.55;2.50;;;18.40;99.90;;;;;;4923286;29;20051;-73
2022/06/21 06:19:18;;;;;;;8.88;2.40;;;18.50;99.90;;;;;;4894542;29;20601;-73
2022/06/21 06:22:07;;;;;;;10.35;2.60;;;18.20;99.90;;;;;;4910121;29;20076;-74
2022/06/21 06:24:55;;;;;;;6.47;2.03;;;18.00;99.90;;;;;;4893092;29;20053;-74
2022/06/21 06:27:45;;;;;;;8.43;2.17;;;17.70;99.90;;;;;;4898907;29;20059;-74
2022/06/21 06:30:16;;;;;;;8.05;2.47;;;17.50;99.90;;;;;;4927518;29;20617;-74
2022/06/21 06:32:44;;;;;;;;;;;17.40;99.90;;;;;;4913896;29;20043;-74
2022/06/21 06:35:22;;;;;;;13.05;3.35;;;17.40;99.90;;;;;;4945160;29;19970;-74
2022/06/21 06:37:48;;;;;;;7.57;2.92;;;17.40;99.90;;;;;;4942952;28;20043;-74
2022/06/21 06:40:18;;;;;;;9.77;3.28;;;17.30;99.90;;;;;;4928219;29;20035;-74
2022/06/21 06:42:47;;;;;;;9.45;3.33;;;17.20;99.90;;;;;;4928911;29;20042;-74
2022/06/21 06:45:19;;;;;;;10.45;2.90;;;17.20;99.90;;;;;;4924191;29;20043;-74
2022/06/21 06:48:02;;;;;;;10.23;3.22;;;17.20;99.90;;;;;;4941283;29;20109;-74
2022/06/21 06:50:43;;;;;;;9.85;3.60;;;17.30;99.90;;;;;;4942695;28;20051;-74
2022/06/21 06:53:20;;;;;;;10.20;4.13;;;17.30;99.90;;;;;;4933300;29;20043;-74
2022/06/21 06:55:59;;;;;;;11.50;3.80;;;17.30;99.90;;;;;;4943996;29;20519;-75
2022/06/21 06:58:46;;;;;;;9.73;3.67;;;17.40;99.90;;;;;;4927613;29;20055;-74
2022/06/21 07:01:22;;;;;;;10.57;3.70;;;17.40;99.90;;;;;;4941921;29;20102;-75
2022/06/21 07:03:55;;;;;;;11.98;3.83;;;17.50;99.90;;;;;;4924477;29;20055;-74
2022/06/21 07:06:33;;;;;;;11.60;3.58;;;17.60;99.90;;;;;;4925896;29;20044;-74
2022/06/21 07:09:08;;;;;;;11.02;3.30;;;17.60;99.90;;;;;;4909372;29;20489;-74
2022/06/21 07:11:40;;;;;;;9.30;3.08;;;17.70;99.90;;;;;;4928528;29;20460;-74
2022/06/21 07:14:18;;;;;;;11.13;3.03;;;17.90;99.90;;;;;;4930466;29;20047;-74
2022/06/21 07:16:44;;;;;;;8.35;3.33;;;17.90;99.90;;;;;;4944083;28;20050;-74
2022/06/21 07:19:11;;;;;;;8.77;3.42;;;17.90;99.90;;;;;;4946579;28;20539;-74
2022/06/21 07:21:38;;;;;;;11.07;3.60;;;17.80;99.90;;;;;;4946777;29;20054;-74
2022/06/21 07:24:08;;;;;;;10.80;3.50;;;18.00;99.90;;;;;;4926405;29;20056;-74
2022/06/21 07:26:38;;;;;;;9.63;3.47;;;18.30;99.90;;;;;;4930786;29;20039;-74
2022/06/21 07:29:13;;;;;;;11.73;3.70;;;18.60;99.90;;;;;;4946257;29;20469;-75
2022/06/21 07:31:49;;;;;;;9.80;3.92;;;19.00;99.90;;;;;;4925910;29;20070;-75
2022/06/21 07:34:21;;;;;;;12.57;3.95;;;19.40;99.90;;;;;;4930767;29;20532;-74
2022/06/21 07:36:53;;;;;;;10.05;3.38;;;19.60;99.90;;;;;;4947863;28;20055;-75
2022/06/21 07:39:34;;;;;;;8.77;3.30;;;19.90;99.90;;;;;;4945301;28;20046;-74
2022/06/21 07:42:09;;;;;;;9.52;3.20;;;20.10;99.90;;;;;;4930513;29;20047;-75
2022/06/21 07:45:09;;;;;;;5.18;2.58;;;20.10;99.90;;;;;;4945337;28;20054;-75
2022/06/21 07:47:41;;;;;;;9.02;3.42;;;20.00;99.90;;;;;;4944076;29;20039;-74
2022/06/21 07:50:39;;;;;;;10.30;3.17;;;19.80;99.90;;;;;;4929913;29;20450;-75
2022/06/21 07:53:38;;;;;;;11.00;4.25;;;20.00;99.90;;;;;;4930135;29;20047;-74
2022/06/21 07:56:31;;;;;;;7.22;2.85;;;20.30;99.90;;;;;;4923725;29;20381;-74
2022/06/21 07:59:13;;;;;;;7.97;2.47;;;20.60;99.90;;;;;;4930981;29;20054;-74
2022/06/21 08:07:27;;;;;;;10.10;3.70;;;20.70;99.90;;;;;;4946738;29;20523;-74
2022/06/21 08:10:14;;;;;;;10.23;3.38;;;20.40;99.90;;;;;;4953313;29;20047;-74
2022/06/21 08:12:40;;;;;;;9.95;3.03;;;20.60;99.90;;;;;;4968837;28;20039;-74
2022/06/21 08:15:07;;;;;;;7.82;2.63;;;20.60;99.90;;;;;;4966286;29;20043;-74
2022/06/21 08:17:55;;;;;;;12.07;2.92;;;20.70;99.90;;;;;;4959219;29;20066;-75
2022/06/21 08:20:44;;;;;;;7.88;2.63;;;20.60;99.90;;;;;;4955279;28;20051;-74
2022/06/21 08:23:53;;;;;;;8.20;3.20;;;20.90;99.90;;;;;;4968411;29;21066;-72
2022/06/21 08:26:26;;;;;;;9.20;2.50;;;21.00;99.90;;;;;;4947833;29;20055;-72
2022/06/21 08:29:16;;;;;;;9.23;2.55;;;21.00;99.90;;;;;;4928499;29;20050;-72
2022/06/21 08:31:49;;;;;;;8.93;2.40;;;21.00;99.90;;;;;;4945999;29;20051;-72
2022/06/21 08:34:30;;;;;;;8.13;2.88;;;21.10;99.90;;;;;;4943059;29;20409;-72
2022/06/21 08:36:59;;;;;;;;;;;20.90;99.90;;;;;;4929303;29;20049;-73
2022/06/21 08:39:34;;;;;;;6.70;2.38;;;20.80;99.90;;;;;;4945603;29;19950;-73
2022/06/21 08:42:29;;;;;;;8.07;2.53;;;21.20;99.90;;;;;;4927604;29;20382;-73
2022/06/21 08:48:25;;;;;;;8.38;2.65;;;22.00;99.90;;;;;;4929633;29;20047;-72
2022/06/21 08:51:16;;;;;;;11.65;2.80;;;21.60;99.90;;;;;;4945537;28;20055;-72
2022/06/21 08:54:06;;;;;;;7.07;2.15;;;21.50;99.90;;;;;;4943022;29;20528;-72
2022/06/21 08:56:49;;;;;;;8.80;2.63;;;21.80;99.90;;;;;;4927827;29;20035;-72
2022/06/21 08:59:59;;;;;;;11.65;2.80;;;22.20;99.90;;;;;;4945066;29;20055;-73
2022/06/21 09:02:55;;;;;;;7.07;1.98;;;22.50;99.90;;;;;;4907025;29;20520;-73
2022/06/21 09:05:36;;;;;;;7.13;2.03;;;22.70;99.90;;;;;;4928722;29;20062;-73
2022/06/21 09:08:07;;;;;;;5.95;1.98;;;23.10;99.90;;;;;;4946803;28;20054;-72
2022/06/21 09:11:04;;;;;;;6.28;1.83;;;23.30;99.90;;;;;;4912319;29;20531;-72
2022/06/21 09:13:52;;;;;;;6.70;2.00;;;23.50;99.90;;;;;;4927868;29;20058;-72
2022/06/21 09:16:36;;;;;;;8.88;2.38;;;23.80;99.90;;;;;;4943795;29;20625;-72
2022/06/21 09:19:21;;;;;;;6.38;1.95;;;24.00;99.90;;;;;;4946281;29;20126;-72
2022/06/21 09:22:20;;;;;;;8.52;2.17;;;23.70;99.90;;;;;;4944711;28;20039;-72
2022/06/21 09:25:05;;;;;;;6.03;2.10;;;23.50;99.90;;;;;;4910666;29;20047;-72
2022/06/21 09:27:40;;;;;;;8.35;2.03;;;23.10;99.90;;;;;;4928700;28;20057;-72
2022/06/21 09:30:11;;;;;;;7.25;2.15;;;22.90;99.90;;;;;;4946226;28;20048;-72
2022/06/21 09:32:46;;;;;;;6.90;1.98;;;22.90;99.90;;;;;;4929060;28;20122;-72
2022/06/21 09:35:34;;;;;;;7.78;2.15;;;22.60;99.90;;;;;;4944612;29;20062;-72
2022/06/21 09:38:16;;;;;;;5.68;1.98;;;22.70;99.90;;;;;;4928271;29;20855;-72
2022/06/21 09:40:41;;;;;;;7.70;1.77;;;23.20;99.90;;;;;;4942688;28;20048;-72
2022/06/21 09:43:38;;;;;;;7.13;1.92;;;23.60;99.90;;;;;;4911212;29;20054;-72
2022/06/21 09:46:22;;;;;;;6.25;1.80;;;24.00;99.90;;;;;;4929962;29;20093;-72
2022/06/21 09:49:03;;;;;;;9.50;1.80;;;24.30;99.90;;;;;;4941500;29;20397;-72
2022/06/21 09:51:38;;;;;;;7.53;2.22;;;24.60;99.90;;;;;;4945119;28;20440;-72
2022/06/21 09:54:25;;;;;;;8.27;2.05;;;24.60;99.40;;;;;;4945400;28;20055;-73
2022/06/21 09:57:03;;;;;;;5.45;1.92;;;24.20;99.40;;;;;;4945570;29;20047;-73
2022/06/21 09:59:55;;;;;;;8.48;2.33;;;23.40;99.70;;;;;;4926538;29;20094;-72
2022/06/21 10:02:29;;;;;;;7.72;2.05;;;22.90;99.90;;;;;;4940346;28;20568;-72
2022/06/21 10:05:24;;;;;;;7.22;1.80;;;22.80;99.90;;;;;;4939466;29;20075;-72
2022/06/21 10:08:07;;;;;;;5.80;1.88;;;23.00;99.90;;;;;;4946921;29;20567;-72
2022/06/21 10:10:38;;;;;;;7.03;2.00;;;23.20;99.90;;;;;;4922649;29;20565;-72
2022/06/21 10:13:27;;;;;;;6.60;1.40;;;23.40;99.90;;;;;;4942270;29;20563;-72
2022/06/21 10:16:13;;;;;;;6.78;1.83;;;23.70;99.90;;;;;;4942148;29;20055;-72
2022/06/21 10:19:00;;;;;;;5.35;1.50;;;24.00;99.40;;;;;;4923036;29;20451;-72
2022/06/21 10:22:03;;;;;;;5.63;1.60;;;23.80;98.10;;;;;;4917294;29;20521;-73
2022/06/21 10:24:38;;;;;;;6.60;1.60;;;23.20;97.60;;;;;;4925229;29;20047;-72
2022/06/21 10:27:10;;;;;;;5.60;1.48;;;22.70;98.60;;;;;;4930363;29;20061;-71
2022/06/21 10:29:39;;;;;;;3.63;1.35;;;22.30;99.30;;;;;;4915626;29;20051;-72
2022/06/21 10:32:11;;;;;;;5.63;1.40;;;22.00;98.40;;;;;;4929648;28;20057;-72
2022/06/21 10:35:24;;;;;;;6.35;1.52;;;22.20;99.90;;;;;;4944452;29;20047;-73
2022/06/21 10:38:03;;;;;;;4.68;1.67;;;22.80;99.90;;;;;;4856824;29;20053;-72
2022/06/21 10:40:52;;;;;;;4.72;1.42;;;23.20;99.70;;;;;;4942784;29;20101;-73
2022/06/21 10:43:39;;;;;;;9.13;1.88;;;22.90;98.80;;;;;;4943666;28;20059;-73
2022/06/21 10:46:25;;;;;;;6.00;1.55;;;22.90;99.40;;;;;;4942096;28;20043;-73
2022/06/21 10:49:09;;;;;;;8.43;1.63;;;23.20;98.90;;;;;;4924296;29;20061;-72
2022/06/21 10:51:53;;;;;;;7.40;1.77;;;23.70;99.90;;;;;;4942579;29;20054;-72
2022/06/21 10:54:38;;;;;;;5.90;1.33;;;24.00;98.20;;;;;;4929909;29;20045;-73
2022/06/21 10:57:09;;;;;;;5.38;1.30;;;24.40;98.00;;;;;;4961034;28;20050;-73
2022/06/21 11:02:43;;;;;;;6.50;1.52;;;24.80;95.80;;;;;;4965139;28;20070;-73
2022/06/21 11:05:18;;;;;;;4.68;1.38;;;24.80;93.10;;;;;;4941911;28;20047;-72
2022/06/21 11:07:55;;;;;;;7.05;1.33;;;24.70;95.00;;;;;;4945631;28;20134;-73
2022/06/21 11:10:31;;;;;;;4.32;1.17;;;24.40;91.30;;;;;;4923050;29;20058;-72
2022/06/21 11:13:05;;;;;;;5.72;1.45;;;24.00;94.10;;;;;;4927152;29;20520;-72
2022/06/21 11:15:36;;;;;;;6.07;1.83;;;23.70;94.80;;;;;;4945063;29;20106;-72
2022/06/21 11:18:10;;;;;;;4.07;1.48;;;23.40;95.90;;;;;;4928389;29;21432;-72
2022/06/21 11:21:03;;;;;;;5.57;1.48;;;23.60;96.20;;;;;;4929549;28;20059;-72
2022/06/21 11:23:49;;;;;;;5.68;1.65;;;23.80;96.80;;;;;;4924856;28;20071;-73
2022/06/21 11:26:26;;;;;;;5.75;1.60;;;24.00;96.90;;;;;;4941902;28;20043;-73
2022/06/21 11:29:07;;;;;;;4.47;1.48;;;24.00;95.60;;;;;;4922082;29;20142;-72
2022/06/21 11:31:43;;;;;;;5.18;1.63;;;24.20;95.50;;;;;;4923952;29;20058;-72
2022/06/21 11:34:22;;;;;;;4.03;1.33;;;24.40;95.00;;;;;;4923858;29;20130;-73
2022/06/21 11:36:54;;;;;;;6.75;1.25;;;24.60;94.90;;;;;;4941440;28;20054;-73
2022/06/21 11:39:28;;;;;;;5.53;1.25;;;24.70;92.40;;;;;;4924956;29;20413;-72
2022/06/21 11:42:24;;;;;;;5.57;1.40;;;24.60;91.20;;;;;;4943309;28;20098;-73
2022/06/21 11:45:24;;;;;;;5.32;1.30;;;24.50;90.10;;;;;;4941019;29;20078;-73
2022/06/21 11:48:10;;;;;;;4.82;1.40;;;24.40;90.30;;;;;;4925064;29;20051;-72
2022/06/21 11:51:17;;;;;;;6.03;1.73;;;24.40;90.70;;;;;;4942371;28;20065;-73
2022/06/21 11:54:26;;;;;;;7.45;1.80;;;24.20;87.30;;;;;;4847343;29;20034;-72
2022/06/21 11:57:05;;;;;;;6.55;1.58;;;24.10;91.60;;;;;;4826281;29;20570;-73
2022/06/21 12:00:04;;;;;;;5.55;1.50;;;24.20;90.80;;;;;;4848723;29;20385;-72
2022/06/21 12:02:36;;;;;;;6.47;1.60;;;24.20;91.80;;;;;;4906987;29;20620;-72
2022/06/21 12:05:16;;;;;;;9.43;1.80;;;24.40;93.20;;;;;;4928799;29;20050;-73
2022/06/21 12:08:03;;;;;;;6.25;1.58;;;24.60;92.50;;;;;;4944012;29;20594;-72
2022/06/21 12:11:27;;;;;;;6.25;1.90;;;24.70;92.30;;;;;;4942051;28;20062;-73
2022/06/21 12:13:56;;;;;;;4.88;1.27;;;24.80;91.60;;;;;;4882059;29;20056;-72
2022/06/21 12:16:34;;;;;;;7.90;1.88;;;24.80;90.70;;;;;;4940706;29;20063;-72
2022/06/21 12:19:15;;;;;;;4.75;1.48;;;24.80;88.50;;;;;;4942455;28;20047;-73
2022/06/21 12:21:54;;;;;;;4.93;1.42;;;24.70;84.80;;;;;;4947083;29;20059;-72
2022/06/21 12:24:24;;;;;;;6.43;1.65;;;24.60;88.90;;;;;;4952555;29;20466;-73
2022/06/21 12:26:50;;;;;;;6.40;2.10;;;24.50;83.70;;;;;;4932015;29;20477;-73
2022/06/21 12:29:19;;;;;;;6.95;2.30;;;24.30;81.90;;;;;;4928908;29;20553;-72
2022/06/21 12:31:55;;;;;;;4.03;1.90;;;24.20;85.10;;;;;;4930645;29;20425;-73
2022/06/21 12:34:40;;;;;;;8.90;2.05;;;24.20;86.00;;;;;;4936436;29;20062;-72
2022/06/21 12:37:10;;;;;;;5.00;1.55;;;24.30;88.70;;;;;;4912724;29;20445;-71
2022/06/21 12:40:03;;;;;;;4.82;1.40;;;24.50;90.50;;;;;;4946394;28;20149;-72
2022/06/21 12:42:38;;;;;;;5.20;2.00;;;24.70;90.70;;;;;;4935076;29;20062;-72
2022/06/21 12:45:48;;;;;;;5.47;1.90;;;24.80;87.10;;;;;;4944337;29;20051;-71
2022/06/21 12:48:51;;;;;;;5.68;1.65;;;24.80;88.60;;;;;;4919520;29;20485;-73
2022/06/21 12:51:28;;;;;;;6.40;1.77;;;24.80;89.80;;;;;;4941473;28;20050;-72
2022/06/21 12:54:00;;;;;;;7.05;2.50;;;24.90;86.30;;;;;;4944796;28;20390;-72
2022/06/21 12:56:31;;;;;;;7.55;1.80;;;24.90;85.60;;;;;;4928310;29;20082;-72
2022/06/21 12:59:00;;;;;;;;;;;24.80;84.50;;;;;;4944172;29;20047;-72
2022/06/21 13:01:39;;;;;;;7.43;2.08;;;24.70;84.40;;;;;;4945024;29;19926;-72
2022/06/21 13:04:23;;;;;;;5.80;1.55;;;24.70;85.30;;;;;;4938939;28;20070;-73
2022/06/21 13:07:12;;;;;;;4.97;1.60;;;24.70;85.90;;;;;;4907389;29;20110;-73
2022/06/21 13:09:47;;;;;;;5.20;1.42;;;24.60;83.70;;;;;;4906710;29;20058;-73
2022/06/21 13:12:43;;;;;;;7.50;1.75;;;24.40;84.70;;;;;;4944897;28;20045;-72
2022/06/21 13:15:17;;;;;;;3.92;1.52;;;24.40;85.70;;;;;;4909023;29;20082;-73
2022/06/21 13:18:02;;;;;;;5.28;1.85;;;24.50;86.00;;;;;;4910678;29;20044;-72
2022/06/21 13:20:40;;;;;;;3.95;1.30;;;24.50;85.10;;;;;;4941672;28;20043;-72
2022/06/21 13:23:28;;;;;;;6.85;1.40;;;24.20;84.10;;;;;;4924316;29;20481;-72
2022/06/21 13:26:08;;;;;;;3.63;1.15;;;24.00;84.20;;;;;;4940908;28;20079;-72
2022/06/21 13:28:46;;;;;;;4.10;1.50;;;23.80;84.30;;;;;;4939620;29;20071;-72
2022/06/21 13:31:40;;;;;;;4.18;1.40;;;23.60;84.90;;;;;;4940255;28;20051;-72
2022/06/21 13:34:36;;;;;;;7.03;1.50;;;23.50;85.60;;;;;;4942063;29;20051;-72
2022/06/21 13:37:23;;;;;;;3.75;1.20;;;23.40;86.80;;;;;;4912214;29;20055;-72
2022/06/21 13:40:02;;;;;;;5.65;1.10;;;23.40;87.60;;;;;;4922098;29;20125;-72
2022/06/21 13:42:48;;;;;;;3.90;1.45;;;23.40;86.40;;;;;;4938325;29;20054;-72
2022/06/21 13:45:39;;;;;;;3.15;1.20;;;23.30;88.50;;;;;;4943928;28;20043;-72
2022/06/21 13:48:46;;;;;;;3.97;1.33;;;23.20;86.20;;;;;;4941664;29;20046;-73
2022/06/21 13:51:15;;;;;;;4.47;1.17;;;23.30;88.70;;;;;;4940454;28;20099;-73
2022/06/21 13:53:46;;;;;;;6.15;1.30;;;23.30;87.90;;;;;;4958089;28;20043;-72
2022/06/21 13:56:22;;;;;;;5.63;1.10;;;23.50;88.10;;;;;;4925278;29;20039;-72
2022/06/21 13:59:06;;;;;;;4.30;1.30;;;23.70;86.90;;;;;;4948292;29;20051;-73